Time;durP1;ratioP1;P1;durP2;ratioP2;P2;SDS_P1;SDS_P2;PMS_P1;PMS_P2;Temp;Humidity;BMP_temperature;BMP_pressure;BME280_temperature;BME280_humidity;BME280_pressure;Samples;Min_cycle;Max_cycle;Signal;HPM_P1;HPM_P2
2022/03/15 00:00:44;;;;;;;;;;;9.50;59.20;;;;;;5063166;28;19919;-89
2022/03/15 00:03:09;;;;;;;;;;;9.50;59.20;;;;;;5062492;28;19916;-89
2022/03/15 00:05:35;;;;;;;;;;;9.40;59.20;;;;;;5063283;28;19916;-90
2022/03/15 00:08:00;;;;;;;;;;;9.40;59.30;;;;;;5063165;28;19912;-90
2022/03/15 00:10:27;;;;;;;;;;;9.40;59.20;;;;;;5062982;28;20286;-89
2022/03/15 00:12:54;;;;;;;;;;;9.40;59.30;;;;;;5062497;28;19963;-90
2022/03/15 00:15:20;;;;;;;;;;;9.40;59.40;;;;;;5079818;28;19917;-88
2022/03/15 00:17:45;;;;;;;;;;;9.40;59.50;;;;;;5062748;28;19916;-89
2022/03/15 00:20:14;;;;;;;;;;;9.40;59.60;;;;;;5062308;28;19916;-89
2022/03/15 00:22:39;;;;;;;;;;;9.40;59.70;;;;;;5062228;28;19920;-90
2022/03/15 00:25:06;;;;;;;;;;;9.40;59.50;;;;;;5062303;28;19917;-88
2022/03/15 00:27:32;;;;;;;;;;;9.40;59.40;;;;;;5063213;28;19913;-89
2022/03/15 00:29:57;;;;;;;;;;;9.40;59.40;;;;;;5080471;28;19938;-89
2022/03/15 00:32:24;;;;;;;;;;;9.30;59.40;;;;;;5080589;28;20310;-89
2022/03/15 00:34:49;;;;;;;;;;;9.30;59.20;;;;;;5080235;28;19917;-89
2022/03/15 00:37:15;;;;;;;;;;;9.30;59.20;;;;;;5062419;28;19923;-90
2022/03/15 00:39:41;;;;;;;;;;;9.30;59.20;;;;;;5063204;28;19913;-89
2022/03/15 00:42:07;;;;;;;;;;;9.30;59.30;;;;;;5062124;28;19935;-90
2022/03/15 00:44:32;;;;;;;;;;;9.30;59.40;;;;;;5062133;28;19909;-88
2022/03/15 00:46:58;;;;;;;;;;;9.30;59.50;;;;;;5079930;28;19917;-89
2022/03/15 00:49:23;;;;;;;;;;;9.30;59.50;;;;;;5062603;28;19954;-89
2022/03/15 00:51:51;;;;;;;;;;;9.30;59.50;;;;;;5061957;28;19916;-89
2022/03/15 00:54:16;;;;;;;;;;;9.30;59.30;;;;;;5062097;28;19927;-88
2022/03/15 00:56:42;;;;;;;;;;;9.30;59.10;;;;;;5062695;28;19916;-89
2022/03/15 00:59:09;;;;;;;;;;;9.30;59.00;;;;;;5061269;28;19930;-88
2022/03/15 01:01:35;;;;;;;;;;;9.20;58.90;;;;;;5061195;28;19927;-89
2022/03/15 01:04:01;;;;;;;;;;;9.20;59.00;;;;;;5061529;28;20352;-88
2022/03/15 01:06:29;;;;;;;;;;;9.20;59.00;;;;;;5079899;28;19938;-89
2022/03/15 01:08:55;;;;;;;;;;;9.20;59.20;;;;;;5079417;28;19934;-89
2022/03/15 01:11:21;;;;;;;;;;;9.20;59.20;;;;;;5061755;28;19980;-89
2022/03/15 01:13:47;;;;;;;;;;;9.20;59.30;;;;;;5061343;28;20361;-88
2022/03/15 01:16:13;;;;;;;;;;;9.20;59.50;;;;;;5061989;28;19923;-88
2022/03/15 01:18:38;;;;;;;;;;;9.20;59.60;;;;;;5061516;28;19908;-90
2022/03/15 01:21:04;;;;;;;;;;;9.20;59.50;;;;;;5062188;28;20368;-89
2022/03/15 01:23:33;;;;;;;;;;;9.20;59.40;;;;;;5080198;28;19934;-88
2022/03/15 01:25:58;;;;;;;;;;;9.20;59.40;;;;;;5079929;28;19916;-89
2022/03/15 01:28:24;;;;;;;;;;;9.30;59.50;;;;;;5079678;28;19908;-89
2022/03/15 01:30:50;;;;;;;;;;;9.30;59.60;;;;;;5079944;28;19916;-90
2022/03/15 01:33:16;;;;;;;;;;;9.30;59.70;;;;;;5061594;28;19908;-89
2022/03/15 01:35:42;;;;;;;;;;;9.30;59.80;;;;;;5061474;28;19917;-88
2022/03/15 01:38:08;;;;;;;;;;;9.30;59.80;;;;;;5079583;28;19916;-90
2022/03/15 01:40:33;;;;;;;;;;;9.30;59.80;;;;;;5079816;28;20349;-90
2022/03/15 01:43:00;;;;;;;;;;;9.30;59.80;;;;;;5061662;28;19909;-90
2022/03/15 01:45:34;;;;;;;;;;;9.30;59.80;;;;;;5079728;28;19923;-90
2022/03/15 01:47:59;;;;;;;;;;;9.30;59.70;;;;;;5080765;28;19916;-90
2022/03/15 01:50:25;;;;;;;;;;;9.30;60.00;;;;;;5062275;28;19913;-92
2022/03/15 01:52:50;;;;;;;;;;;9.20;59.80;;;;;;5061879;28;19922;-91
2022/03/15 01:55:16;;;;;;;;;;;9.30;59.80;;;;;;5080107;28;19912;-91
2022/03/15 01:57:41;;;;;;;;;;;9.20;59.80;;;;;;5061201;28;19908;-90
2022/03/15 02:00:08;;;;;;;;;;;9.20;59.80;;;;;;5061775;28;19908;-90
2022/03/15 02:02:33;;;;;;;;;;;9.20;59.80;;;;;;5061212;28;19916;-90
2022/03/15 02:04:59;;;;;;;;;;;9.20;59.90;;;;;;5059914;28;19957;-91
2022/03/15 02:07:25;;;;;;;;;;;9.20;59.90;;;;;;5061164;28;19935;-91
2022/03/15 02:09:51;;;;;;;;;;;9.20;60.00;;;;;;5060776;28;19908;-89
2022/03/15 02:12:16;;;;;;;;;;;9.20;60.10;;;;;;5060403;28;19916;-89
2022/03/15 02:14:42;;;;;;;;;;;9.20;59.90;;;;;;5078358;28;20653;-90
2022/03/15 02:17:07;;;;;;;;;;;9.20;60.00;;;;;;5059995;28;20012;-90
2022/03/15 02:19:33;;;;;;;;;;;9.20;60.00;;;;;;5077721;28;20265;-89
2022/03/15 02:22:00;;;;;;;;;;;9.20;59.90;;;;;;5060423;28;20003;-90
2022/03/15 02:24:25;;;;;;;;;;;9.20;59.90;;;;;;5060567;28;19912;-89
2022/03/15 02:26:51;;;;;;;;;;;9.20;60.00;;;;;;5060177;28;20265;-90
2022/03/15 02:29:17;;;;;;;;;;;9.20;60.10;;;;;;5059845;28;19909;-90
2022/03/15 02:31:43;;;;;;;;;;;9.30;60.20;;;;;;5059680;28;19924;-90
2022/03/15 02:34:08;;;;;;;;;;;9.30;60.30;;;;;;5060052;28;20249;-89
2022/03/15 02:36:34;;;;;;;;;;;9.30;60.30;;;;;;5077197;28;19947;-89
2022/03/15 02:39:00;;;;;;;;;;;9.30;60.30;;;;;;5059585;28;19908;-90
2022/03/15 02:41:25;;;;;;;;;;;9.30;60.20;;;;;;5077900;28;20324;-90
2022/03/15 02:43:51;;;;;;;;;;;9.30;60.10;;;;;;5061844;28;19955;-90
2022/03/15 02:46:17;;;;;;;;;;;9.30;60.00;;;;;;5060235;28;19916;-90
2022/03/15 02:48:43;;;;;;;;;;;9.40;60.00;;;;;;5059576;28;19908;-90
2022/03/15 02:51:10;;;;;;;;;;;9.30;59.90;;;;;;5059949;28;19943;-89
2022/03/15 02:53:37;;;;;;;;;;;9.40;59.90;;;;;;5059796;28;19920;-89
2022/03/15 02:56:04;;;;;;;;;;;9.40;59.90;;;;;;5060486;28;19917;-90
2022/03/15 02:58:30;;;;;;;;;;;9.40;59.90;;;;;;5077774;28;19916;-90
2022/03/15 03:00:55;;;;;;;;;;;9.40;60.00;;;;;;5059561;28;19921;-90
2022/03/15 03:03:22;;;;;;;;;;;9.40;59.90;;;;;;5060765;28;20388;-90
2022/03/15 03:05:48;;;;;;;;;;;9.40;59.80;;;;;;5077727;28;20368;-89
2022/03/15 03:08:16;;;;;;;;;;;9.30;59.60;;;;;;5059118;28;19909;-90
2022/03/15 03:10:41;;;;;;;;;;;9.30;59.50;;;;;;5077325;28;20006;-90
2022/03/15 03:13:09;;;;;;;;;;;9.40;59.50;;;;;;5059275;28;20292;-89
2022/03/15 03:15:35;;;;;;;;;;;9.30;59.60;;;;;;5063297;28;19920;-89
2022/03/15 03:18:01;;;;;;;;;;;9.40;59.60;;;;;;5063412;28;19944;-90
2022/03/15 03:20:27;;;;;;;;;;;9.30;59.60;;;;;;5063113;28;19950;-90
2022/03/15 03:22:53;;;;;;;;;;;9.30;59.70;;;;;;5062623;28;20427;-89
2022/03/15 03:25:19;;;;;;;;;;;9.30;59.90;;;;;;5064054;28;20676;-89
2022/03/15 03:27:46;;;;;;;;;;;9.30;59.90;;;;;;5063060;28;19913;-90
2022/03/15 03:30:13;;;;;;;;;;;9.30;60.00;;;;;;5061646;28;19912;-89
2022/03/15 03:32:38;;;;;;;;;;;9.30;60.00;;;;;;5061740;28;20368;-89
2022/03/15 03:35:04;;;;;;;;;;;9.40;60.00;;;;;;5061727;28;19952;-89
2022/03/15 03:37:30;;;;;;;;;;;9.40;60.00;;;;;;5062235;28;19970;-90
2022/03/15 03:39:56;;;;;;;;;;;9.40;59.90;;;;;;5078548;28;19962;-90
2022/03/15 03:42:21;;;;;;;;;;;9.40;59.90;;;;;;5061023;28;20371;-90
2022/03/15 03:44:47;;;;;;;;;;;9.40;59.90;;;;;;5061500;28;19912;-90
2022/03/15 03:47:13;;;;;;;;;;;9.40;59.90;;;;;;5062172;28;19916;-90
2022/03/15 03:49:40;;;;;;;;;;;9.40;60.00;;;;;;5061524;28;19958;-90
2022/03/15 03:52:06;;;;;;;;;;;9.40;60.10;;;;;;5079712;28;19924;-88
2022/03/15 03:54:32;;;;;;;;;;;9.40;60.20;;;;;;5079246;28;19916;-89
2022/03/15 03:56:57;;;;;;;;;;;9.40;60.20;;;;;;5061002;28;19917;-89
2022/03/15 03:59:23;;;;;;;;;;;9.40;60.30;;;;;;5061105;28;19966;-89
2022/03/15 04:01:49;;;;;;;;;;;9.40;60.40;;;;;;5061468;28;19920;-89
2022/03/15 04:04:14;;;;;;;;;;;9.40;60.40;;;;;;5079841;28;20371;-89
2022/03/15 04:06:40;;;;;;;;;;;9.40;60.40;;;;;;5061859;28;19916;-89
2022/03/15 04:09:09;;;;;;;;;;;9.50;60.50;;;;;;5061582;28;19935;-91
2022/03/15 04:11:36;;;;;;;;;;;9.50;60.50;;;;;;5060783;28;19971;-91
2022/03/15 04:14:03;;;;;;;;;;;9.50;60.50;;;;;;5061382;28;20287;-89
2022/03/15 04:16:29;;;;;;;;;;;9.50;60.50;;;;;;5079526;28;20319;-89
2022/03/15 04:18:55;;;;;;;;;;;9.60;60.50;;;;;;5061856;28;19924;-89
2022/03/15 04:21:24;;;;;;;;;;;9.60;60.60;;;;;;5060937;28;19948;-90
2022/03/15 04:23:56;;;;;;;;;;;9.60;60.40;;;;;;5061385;28;19912;-90
2022/03/15 04:26:22;;;;;;;;;;;9.60;60.30;;;;;;5078036;28;19912;-90
2022/03/15 04:28:48;;;;;;;;;;;9.60;60.20;;;;;;5061658;28;19958;-90
2022/03/15 04:31:13;;;;;;;;;;;9.60;60.10;;;;;;5061769;28;19944;-89
2022/03/15 04:33:39;;;;;;;;;;;9.60;60.20;;;;;;5061040;28;19917;-89
2022/03/15 04:36:05;;;;;;;;;;;9.60;60.20;;;;;;5079425;28;20380;-90
2022/03/15 04:38:31;;;;;;;;;;;9.60;60.20;;;;;;5060963;28;19917;-89
2022/03/15 04:40:58;;;;;;;;;;;9.50;60.10;;;;;;5060427;28;19913;-89
2022/03/15 04:43:24;;;;;;;;;;;9.60;60.00;;;;;;5061273;28;19912;-90
2022/03/15 04:45:50;;;;;;;;;;;9.60;60.00;;;;;;5060576;28;19913;-90
2022/03/15 04:48:17;;;;;;;;;;;9.50;60.00;;;;;;5061111;28;19912;-90
2022/03/15 04:50:43;;;;;;;;;;;9.50;60.00;;;;;;5078906;28;20003;-89
2022/03/15 04:53:08;;;;;;;;;;;9.50;60.10;;;;;;5061145;28;19967;-90
2022/03/15 04:55:34;;;;;;;;;;;9.50;60.10;;;;;;5061565;28;19920;-91
2022/03/15 04:57:59;;;;;;;;;;;9.50;60.00;;;;;;5061347;28;19961;-90
2022/03/15 05:00:25;;;;;;;;;;;9.50;60.10;;;;;;5061181;28;20015;-90
2022/03/15 05:02:50;;;;;;;;;;;9.50;60.10;;;;;;5060652;28;19958;-90
2022/03/15 05:05:16;;;;;;;;;;;9.50;60.10;;;;;;5060893;28;19978;-90
2022/03/15 05:07:41;;;;;;;;;;;9.50;60.10;;;;;;5079302;28;19931;-90
2022/03/15 05:12:51;;;;;;;;;;;9.50;60.20;;;;;;5079525;28;19939;-90
2022/03/15 05:15:16;;;;;;;;;;;9.50;60.20;;;;;;5061804;28;19896;-90
2022/03/15 05:17:42;;;;;;;;;;;9.60;60.20;;;;;;5061229;28;19909;-90
2022/03/15 05:20:10;;;;;;;;;;;9.60;60.10;;;;;;5060810;28;19999;-89
2022/03/15 05:22:35;;;;;;;;;;;9.50;60.10;;;;;;5061435;28;20338;-89
2022/03/15 05:25:01;;;;;;;;;;;9.50;60.10;;;;;;5061285;28;19908;-90
2022/03/15 05:27:27;;;;;;;;;;;9.50;60.10;;;;;;5061172;28;19924;-91
2022/03/15 05:29:53;;;;;;;;;;;9.60;60.10;;;;;;5060670;28;19909;-88
2022/03/15 05:32:19;;;;;;;;;;;9.60;60.10;;;;;;5079819;28;19916;-89
2022/03/15 05:34:44;;;;;;;;;;;9.60;60.10;;;;;;5061643;28;19912;-89
2022/03/15 05:37:10;;;;;;;;;;;9.60;60.10;;;;;;5078346;28;20042;-89
2022/03/15 05:39:35;;;;;;;;;;;9.60;60.10;;;;;;5061121;28;20410;-89
2022/03/15 05:42:01;;;;;;;;;;;9.60;60.00;;;;;;5079330;28;19900;-91
2022/03/15 05:44:27;;;;;;;;;;;9.60;60.10;;;;;;5060693;28;19944;-89
2022/03/15 05:46:53;;;;;;;;;;;9.60;60.20;;;;;;5060870;28;19916;-90
2022/03/15 05:49:19;;;;;;;;;;;9.60;60.20;;;;;;5078256;28;19908;-90
2022/03/15 05:51:45;;;;;;;;;;;9.70;60.30;;;;;;5059695;28;20325;-89
2022/03/15 05:54:10;;;;;;;;;;;9.60;60.30;;;;;;5060158;28;19916;-90
2022/03/15 05:56:36;;;;;;;;;;;9.70;60.30;;;;;;5060371;28;19916;-89
2022/03/15 05:59:01;;;;;;;;;;;9.70;60.30;;;;;;5059725;28;19912;-88
2022/03/15 06:01:27;;;;;;;;;;;9.70;60.40;;;;;;5060524;28;20272;-90
2022/03/15 06:03:53;;;;;;;;;;;9.70;60.40;;;;;;5079694;28;19912;-89
2022/03/15 06:06:20;;;;;;;;;;;9.70;60.50;;;;;;5063361;28;19912;-90
2022/03/15 06:08:46;;;;;;;;;;;9.80;60.50;;;;;;5062038;28;19927;-91
2022/03/15 06:11:12;;;;;;;;;;;9.80;60.60;;;;;;5080525;28;19908;-90
2022/03/15 06:13:38;;;;;;;;;;;9.80;60.70;;;;;;5078960;28;19969;-90
2022/03/15 06:16:04;;;;;;;;;;;9.90;60.70;;;;;;5060704;28;20346;-90
2022/03/15 06:18:29;;;;;;;;;;;9.90;60.70;;;;;;5060712;28;19939;-90
2022/03/15 06:20:55;;;;;;;;;;;10.00;60.70;;;;;;5060795;28;19962;-92
2022/03/15 06:23:24;;;;;;;;;;;10.00;60.60;;;;;;5060710;28;19916;-90
2022/03/15 06:25:50;;;;;;;;;;;10.10;60.70;;;;;;5078666;28;19920;-91
2022/03/15 06:28:16;;;;;;;;;;;10.20;60.80;;;;;;5078648;28;19916;-91
2022/03/15 06:30:41;;;;;;;;;;;10.20;60.80;;;;;;5057027;28;19912;-89
2022/03/15 06:33:07;;;;;;;;;;;10.30;60.90;;;;;;5078031;28;19912;-89
2022/03/15 06:35:33;;;;;;;;;;;10.30;60.90;;;;;;5060125;28;19924;-90
2022/03/15 06:38:01;;;;;;;;;;;10.40;61.00;;;;;;5060898;28;19919;-90
2022/03/15 06:40:26;;;;;;;;;;;10.50;61.00;;;;;;5060547;28;19913;-92
2022/03/15 06:42:52;;;;;;;;;;;10.60;61.00;;;;;;5059750;28;20400;-90
2022/03/15 06:45:18;;;;;;;;;;;10.60;61.00;;;;;;5077491;28;20292;-90
2022/03/15 06:47:43;;;;;;;;;;;10.70;61.10;;;;;;5058318;28;19912;-90
2022/03/15 06:50:10;;;;;;;;;;;10.70;61.20;;;;;;5058468;28;19912;-90
2022/03/15 06:52:37;;;;;;;;;;;10.80;61.20;;;;;;5043207;28;19929;-90
2022/03/15 06:55:04;;;;;;;;;;;10.80;61.30;;;;;;5041431;28;20337;-90
2022/03/15 06:57:30;;;;;;;;;;;10.90;61.30;;;;;;5060794;28;19916;-89
2022/03/15 06:59:56;;;;;;;;;;;11.00;61.40;;;;;;5043389;28;19912;-90
2022/03/15 07:02:22;;;;;;;;;;;11.10;61.60;;;;;;5060678;28;19920;-90
2022/03/15 07:04:49;;;;;;;;;;;11.20;61.60;;;;;;5043312;28;19909;-89
2022/03/15 07:07:15;;;;;;;;;;;11.30;61.60;;;;;;5042516;28;20004;-90
2022/03/15 07:09:42;;;;;;;;;;;11.40;61.70;;;;;;5061130;28;19909;-90
2022/03/15 07:12:07;;;;;;;;;;;11.50;61.60;;;;;;5059897;28;19940;-91
2022/03/15 07:14:33;;;;;;;;;;;11.60;61.50;;;;;;5042634;28;19921;-90
2022/03/15 07:16:58;;;;;;;;;;;11.70;61.40;;;;;;5042904;28;19958;-90
2022/03/15 07:19:27;;;;;;;;;;;11.80;61.50;;;;;;5025633;28;19916;-90
2022/03/15 07:21:53;;;;;;;;;;;11.80;61.50;;;;;;5060210;28;19916;-91
2022/03/15 07:24:18;;;;;;;;;;;11.90;61.50;;;;;;5042116;28;19995;-91
2022/03/15 07:26:47;;;;;;;;;;;12.00;61.40;;;;;;5062217;28;19968;-91
2022/03/15 07:29:14;;;;;;;;;;;12.10;61.40;;;;;;5062809;28;19999;-91
2022/03/15 07:31:39;;;;;;;;;;;12.20;61.40;;;;;;5042310;28;19944;-91
2022/03/15 07:34:05;;;;;;;;;;;12.20;61.40;;;;;;5043153;28;20015;-91
2022/03/15 07:36:30;;;;;;;;;;;12.30;61.40;;;;;;5042640;28;19928;-91
2022/03/15 07:38:56;;;;;;;;;;;12.40;61.30;;;;;;5060505;28;19916;-91
2022/03/15 07:41:23;;;;;;;;;;;12.50;60.80;;;;;;5060801;28;19917;-91
2022/03/15 07:43:50;;;;;;;;;;;12.60;60.90;;;;;;5042811;28;20364;-90
2022/03/15 07:46:16;;;;;;;;;;;12.60;61.10;;;;;;5060066;28;19916;-90
2022/03/15 07:48:41;;;;;;;;;;;12.70;61.20;;;;;;5042309;28;19991;-91
2022/03/15 07:51:07;;;;;;;;;;;12.80;61.30;;;;;;5041941;28;19917;-90
2022/03/15 07:53:32;;;;;;;;;;;12.90;61.10;;;;;;5060180;28;19917;-90
2022/03/15 07:56:01;;;;;;;;;;;13.00;61.20;;;;;;5042582;28;19920;-90
2022/03/15 07:58:27;;;;;;;;;;;13.00;61.20;;;;;;5060066;28;19956;-90
2022/03/15 08:00:56;;;;;;;;;;;13.10;61.20;;;;;;5040643;28;19936;-91
2022/03/15 08:03:22;;;;;;;;;;;13.20;61.10;;;;;;5043282;28;19952;-91
2022/03/15 08:05:47;;;;;;;;;;;13.30;61.00;;;;;;5043035;28;19924;-91
2022/03/15 08:08:13;;;;;;;;;;;13.40;61.00;;;;;;5042763;28;19909;-90
2022/03/15 08:10:39;;;;;;;;;;;13.40;61.10;;;;;;5041485;28;19928;-91
2022/03/15 08:13:04;;;;;;;;;;;13.50;61.10;;;;;;5042645;28;19991;-92
2022/03/15 08:15:30;;;;;;;;;;;13.60;61.00;;;;;;5075927;28;19932;-91
2022/03/15 08:17:55;;;;;;;;;;;13.70;60.80;;;;;;5045593;28;19921;-91
2022/03/15 08:20:23;;;;;;;;;;;13.80;60.60;;;;;;5061927;28;20283;-91
2022/03/15 08:22:48;;;;;;;;;;;13.80;60.30;;;;;;5061871;28;20415;-91
2022/03/15 08:25:14;;;;;;;;;;;13.80;60.30;;;;;;5063400;28;19967;-90
2022/03/15 08:27:39;;;;;;;;;;;13.90;60.20;;;;;;5062825;28;19934;-90
2022/03/15 08:30:05;;;;;;;;;;;14.00;60.50;;;;;;5060919;28;20427;-90
2022/03/15 08:32:31;;;;;;;;;;;14.10;60.80;;;;;;5060533;28;19909;-90
2022/03/15 08:34:56;;;;;;;;;;;14.20;60.50;;;;;;5060858;28;19920;-90
2022/03/15 08:37:22;;;;;;;;;;;14.30;60.70;;;;;;5064188;28;19915;-91
2022/03/15 08:39:48;;;;;;;;;;;14.40;60.80;;;;;;5061824;28;20011;-90
2022/03/15 08:42:14;;;;;;;;;;;14.60;60.60;;;;;;5060947;28;19909;-89
2022/03/15 08:44:39;;;;;;;;;;;14.70;60.80;;;;;;5065957;28;19924;-92
2022/03/15 08:47:05;;;;;;;;;;;14.80;61.10;;;;;;5045302;28;20255;-90
2022/03/15 08:49:30;;;;;;;;;;;14.90;61.00;;;;;;5061327;28;19959;-91
2022/03/15 08:51:56;;;;;;;;;;;15.10;61.00;;;;;;5079095;28;19976;-91
2022/03/15 08:54:26;;;;;;;;;;;15.20;60.80;;;;;;5061930;28;20380;-91
2022/03/15 08:56:52;;;;;;;;;;;15.30;60.80;;;;;;5061612;28;20003;-91
2022/03/15 08:59:20;;;;;;;;;;;15.50;60.70;;;;;;5080408;28;20331;-91
2022/03/15 09:01:47;;;;;;;;;;;15.50;60.60;;;;;;5060489;28;20384;-92
2022/03/15 09:04:12;;;;;;;;;;;15.70;60.50;;;;;;5060982;28;19908;-90
2022/03/15 09:06:38;;;;;;;;;;;15.80;60.60;;;;;;5079372;28;20283;-91
2022/03/15 09:09:04;;;;;;;;;;;15.90;60.70;;;;;;5060597;28;19913;-91
2022/03/15 09:11:30;;;;;;;;;;;16.10;60.50;;;;;;5059628;28;19909;-90
2022/03/15 09:13:56;;;;;;;;;;;16.20;60.70;;;;;;5060310;28;19925;-89
2022/03/15 09:16:21;;;;;;;;;;;16.30;60.60;;;;;;5060742;28;19908;-90
2022/03/15 09:18:47;;;;;;;;;;;16.40;60.30;;;;;;5061342;28;20004;-91
2022/03/15 09:21:13;;;;;;;;;;;16.60;60.40;;;;;;5060910;28;19909;-91
2022/03/15 09:23:39;;;;;;;;;;;16.70;60.50;;;;;;5079022;28;19908;-90
2022/03/15 09:26:04;;;;;;;;;;;16.80;60.70;;;;;;5060396;28;20279;-90
2022/03/15 09:28:30;;;;;;;;;;;16.90;60.70;;;;;;5060727;28;19933;-90
2022/03/15 09:30:56;;;;;;;;;;;17.10;61.10;;;;;;5043099;28;19923;-91
2022/03/15 09:33:23;;;;;;;;;;;17.20;60.10;;;;;;5078112;28;19921;-90
2022/03/15 09:35:49;;;;;;;;;;;17.30;59.70;;;;;;5060189;28;20379;-90
2022/03/15 09:38:20;;;;;;;;;;;17.30;59.50;;;;;;5060712;28;19920;-89
2022/03/15 09:40:49;;;;;;;;;;;17.40;59.80;;;;;;5060546;28;20371;-90
2022/03/15 09:43:15;;;;;;;;;;;17.50;59.60;;;;;;5060931;28;19913;-91
2022/03/15 09:45:41;;;;;;;;;;;17.70;59.40;;;;;;5078542;28;20462;-91
2022/03/15 09:48:09;;;;;;;;;;;17.80;59.50;;;;;;5079455;28;19912;-91
2022/03/15 09:50:35;;;;;;;;;;;17.90;59.70;;;;;;5078882;28;19927;-90
2022/03/15 09:53:00;;;;;;;;;;;18.00;58.80;;;;;;5061033;28;20280;-91
2022/03/15 09:55:26;;;;;;;;;;;18.00;58.60;;;;;;5060638;28;19928;-90
2022/03/15 09:57:52;;;;;;;;;;;18.10;59.20;;;;;;5060062;28;19948;-90
2022/03/15 10:00:18;;;;;;;;;;;18.20;58.60;;;;;;5079970;28;19939;-91
2022/03/15 10:02:44;;;;;;;;;;;18.30;58.70;;;;;;5062125;28;19909;-90
2022/03/15 10:05:10;;;;;;;;;;;18.30;57.90;;;;;;5062742;28;19927;-90
2022/03/15 10:07:36;;;;;;;;;;;18.40;58.00;;;;;;5060381;28;19916;-91
2022/03/15 10:10:03;;;;;;;;;;;18.50;58.60;;;;;;5045798;28;20283;-91
2022/03/15 10:12:28;;;;;;;;;;;18.70;57.30;;;;;;5061209;28;19908;-92
2022/03/15 10:14:56;;;;;;;;;;;18.80;58.30;;;;;;5060982;28;19928;-90
2022/03/15 10:17:22;;;;;;;;;;;18.80;56.60;;;;;;5079187;28;19939;-91
2022/03/15 10:19:54;;;;;;;;;;;18.80;56.40;;;;;;5078297;28;19913;-90
2022/03/15 10:22:24;;;;;;;;;;;18.80;56.40;;;;;;5061069;28;19912;-91
2022/03/15 10:24:50;;;;;;;;;;;18.90;57.20;;;;;;5060833;28;19913;-91
2022/03/15 10:27:15;;;;;;;;;;;18.90;56.90;;;;;;5061848;28;20368;-90
2022/03/15 10:29:42;;;;;;;;;;;19.00;57.10;;;;;;5061270;28;20003;-91
2022/03/15 10:32:08;;;;;;;;;;;19.10;57.20;;;;;;5078504;28;19947;-90
2022/03/15 10:34:33;;;;;;;;;;;19.20;57.40;;;;;;5061338;28;19923;-91
2022/03/15 10:36:59;;;;;;;;;;;19.30;57.60;;;;;;5060969;28;19920;-90
2022/03/15 10:39:25;;;;;;;;;;;19.40;57.50;;;;;;5060001;28;19912;-90
2022/03/15 10:41:52;;;;;;;;;;;19.50;56.50;;;;;;5059817;28;20007;-91
2022/03/15 10:44:21;;;;;;;;;;;19.50;56.00;;;;;;5060038;28;20363;-90
2022/03/15 10:47:00;;;;;;;;;;;19.50;56.30;;;;;;5059659;28;19919;-91
2022/03/15 10:49:26;;;;;;;;;;;19.60;57.30;;;;;;5059573;28;19916;-89
2022/03/15 10:51:52;;;;;;;;;;;19.80;56.90;;;;;;5058975;28;20353;-91
2022/03/15 10:54:17;;;;;;;;;;;19.80;55.00;;;;;;5077079;28;19976;-91
2022/03/15 10:56:51;;;;;;;;;;;19.80;55.60;;;;;;5062238;28;19920;-91
2022/03/15 10:59:16;;;;;;;;;;;19.80;54.80;;;;;;5063839;28;19908;-92
2022/03/15 11:01:42;;;;;;;;;;;19.80;55.30;;;;;;5062772;28;19920;-90
2022/03/15 11:04:09;;;;;;;;;;;19.90;55.80;;;;;;5063340;28;20018;-92
2022/03/15 11:06:38;;;;;;;;;;;20.00;55.20;;;;;;5062861;28;19908;-89
2022/03/15 11:09:23;;;;;;;;;;;20.00;54.40;;;;;;5063007;28;19920;-90
2022/03/15 11:11:59;;;;;;;;;;;20.00;54.10;;;;;;5080556;28;19908;-91
2022/03/15 11:14:28;;;;;;;;;;;20.10;54.70;;;;;;5080768;28;19920;-90
2022/03/15 11:16:55;;;;;;;;;;;20.20;54.40;;;;;;5062684;28;19919;-90
2022/03/15 11:19:20;;;;;;;;;;;20.30;53.30;;;;;;5046125;28;19916;-91
2022/03/15 11:21:47;;;;;;;;;;;20.30;53.40;;;;;;5061808;28;20279;-91
2022/03/15 11:24:17;;;;;;;;;;;20.40;53.60;;;;;;5045976;28;19916;-91
2022/03/15 11:26:44;;;;;;;;;;;20.50;54.30;;;;;;5063664;28;19956;-90
2022/03/15 11:29:11;;;;;;;;;;;20.60;53.30;;;;;;5063204;28;19913;-91
2022/03/15 11:31:38;;;;;;;;;;;20.70;53.10;;;;;;5062865;28;20292;-92
2022/03/15 11:34:05;;;;;;;;;;;20.70;50.90;;;;;;5063647;28;19936;-91
2022/03/15 11:36:31;;;;;;;;;;;20.70;50.10;;;;;;5085007;28;19971;-90
2022/03/15 11:38:57;;;;;;;;;;;20.70;49.80;;;;;;5065615;28;19936;-91
2022/03/15 11:41:23;;;;;;;;;;;20.70;49.30;;;;;;5065135;28;19912;-91
2022/03/15 11:44:09;;;;;;;;;;;20.80;49.80;;;;;;5065824;28;20394;-90
2022/03/15 11:46:36;;;;;;;;;;;20.90;49.90;;;;;;5065311;28;19912;-90
2022/03/15 11:49:29;;;;;;;;;;;21.00;49.30;;;;;;5066282;28;19913;-91
2022/03/15 11:51:55;;;;;;;;;;;21.20;48.80;;;;;;5042324;28;19921;-91
2022/03/15 11:54:32;;;;;;;;;;;21.20;47.80;;;;;;5043830;28;22252;-91
2022/03/15 11:57:00;;;;;;;;;;;21.20;47.00;;;;;;5062890;28;19916;-91
2022/03/15 11:59:26;;;;;;;;;;;21.20;46.80;;;;;;5045258;28;20322;-91
2022/03/15 12:01:53;;;;;;;;;;;21.30;47.40;;;;;;5060883;28;19923;-91
2022/03/15 12:04:23;;;;;;;;;;;21.30;47.70;;;;;;5062617;28;19965;-91
2022/03/15 12:06:54;;;;;;;;;;;21.40;46.30;;;;;;5041851;28;19914;-91
2022/03/15 12:09:20;;;;;;;;;;;21.40;45.30;;;;;;5026206;28;20000;-90
2022/03/15 12:12:01;;;;;;;;;;;21.40;44.50;;;;;;5041148;28;19919;-91
2022/03/15 12:14:37;;;;;;;;;;;21.40;43.90;;;;;;5049870;28;20137;-91
2022/03/15 12:17:04;;;;;;;;;;;21.40;43.70;;;;;;5061415;28;20026;-90
2022/03/15 12:19:37;;;;;;;;;;;21.40;44.40;;;;;;5078852;28;19995;-91
2022/03/15 12:22:05;;;;;;;;;;;21.50;44.00;;;;;;5059853;28;19958;-90
2022/03/15 12:24:31;;;;;;;;;;;21.50;44.20;;;;;;5061610;28;19917;-91
2022/03/15 12:27:07;;;;;;;;;;;21.50;42.50;;;;;;5061499;28;20374;-90
2022/03/15 12:29:33;;;;;;;;;;;21.30;42.20;;;;;;5061790;28;19920;-91
2022/03/15 12:32:10;;;;;;;;;;;21.30;42.10;;;;;;5079320;28;20375;-91
2022/03/15 12:34:35;;;;;;;;;;;21.20;42.00;;;;;;5060684;28;19920;-91
2022/03/15 12:37:01;;;;;;;;;;;21.20;42.50;;;;;;5079765;28;19920;-91
2022/03/15 12:39:28;;;;;;;;;;;21.20;42.40;;;;;;5061099;28;19912;-90
2022/03/15 12:42:05;;;;;;;;;;;21.20;42.10;;;;;;5078502;28;19917;-89
2022/03/15 12:44:38;;;;;;;;;;;21.20;42.20;;;;;;5060648;28;19916;-90
2022/03/15 12:47:05;;;;;;;;;;;21.10;42.00;;;;;;5058833;28;19912;-91
2022/03/15 12:49:30;;;;;;;;;;;21.00;41.70;;;;;;5060481;28;19917;-91
2022/03/15 12:51:56;;;;;;;;;;;21.10;42.20;;;;;;5041924;28;19920;-91
2022/03/15 12:54:24;;;;;;;;;;;21.10;41.50;;;;;;5040536;28;19927;-90
2022/03/15 12:56:50;;;;;;;;;;;21.10;41.90;;;;;;5039831;28;19909;-92
2022/03/15 12:59:21;;;;;;;;;;;21.20;42.60;;;;;;5039207;28;20354;-92
2022/03/15 13:01:47;;;;;;;;;;;21.20;41.90;;;;;;5039058;28;19909;-90
2022/03/15 13:04:15;;;;;;;;;;;21.20;41.50;;;;;;5039333;28;20319;-91
2022/03/15 13:06:44;;;;;;;;;;;21.20;42.00;;;;;;5040441;28;19913;-91
2022/03/15 13:09:22;;;;;;;;;;;21.20;40.60;;;;;;5039627;28;19917;-91
2022/03/15 13:11:56;;;;;;;;;;;21.20;39.80;;;;;;5041005;28;20349;-91
2022/03/15 13:14:27;;;;;;;;;;;21.10;38.60;;;;;;5049980;28;19931;-91
2022/03/15 13:16:59;;;;;;;;;;;21.00;38.30;;;;;;5079631;28;19916;-91
2022/03/15 13:19:29;;;;;;;;;;;20.90;39.10;;;;;;5061362;28;20008;-91
2022/03/15 13:21:55;;;;;;;;;;;20.80;38.60;;;;;;5077767;28;19920;-91
2022/03/15 13:24:23;;;;;;;;;;;20.70;39.20;;;;;;5042807;28;19963;-91
2022/03/15 13:26:55;;;;;;;;;;;20.70;38.70;;;;;;5060896;28;19916;-91
2022/03/15 13:29:24;;;;;;;;;;;20.70;38.10;;;;;;5059845;28;20430;-91
2022/03/15 13:31:49;;;;;;;;;;;20.70;37.90;;;;;;5060005;28;19916;-91
2022/03/15 13:34:20;;;;;;;;;;;20.60;37.50;;;;;;5078001;28;19965;-91
2022/03/15 13:36:46;;;;;;;;;;;20.50;37.80;;;;;;5060157;28;20393;-90
2022/03/15 13:39:12;;;;;;;;;;;20.50;37.90;;;;;;5077761;28;19966;-91
2022/03/15 13:41:42;;;;;;;;;;;20.40;37.80;;;;;;5059309;28;19942;-90
2022/03/15 13:44:12;;;;;;;;;;;20.40;37.80;;;;;;5059893;28;19909;-91
2022/03/15 13:46:39;;;;;;;;;;;20.30;37.10;;;;;;5059154;28;20326;-92
2022/03/15 13:49:05;;;;;;;;;;;20.30;38.00;;;;;;5059315;28;19939;-92
2022/03/15 13:51:35;;;;;;;;;;;20.20;37.50;;;;;;5045671;28;20335;-92
2022/03/15 13:54:10;;;;;;;;;;;20.20;37.30;;;;;;5040573;28;19928;-92
2022/03/15 13:56:40;;;;;;;;;;;20.10;37.70;;;;;;5040084;28;19920;-92
2022/03/15 13:59:09;;;;;;;;;;;20.10;37.90;;;;;;5057423;28;20368;-93
2022/03/15 14:01:39;;;;;;;;;;;20.20;38.10;;;;;;5040025;28;19948;-92
2022/03/15 14:04:07;;;;;;;;;;;20.10;38.20;;;;;;5058390;28;19913;-92
2022/03/15 14:06:35;;;;;;;;;;;20.10;37.70;;;;;;5058746;28;19917;-92
2022/03/15 14:09:04;;;;;;;;;;;20.10;37.90;;;;;;5040633;28;19924;-92
2022/03/15 14:11:40;;;;;;;;;;;20.10;37.90;;;;;;5042227;28;20277;-92
2022/03/15 14:14:08;;;;;;;;;;;20.00;37.70;;;;;;5047816;28;19920;-93
2022/03/15 14:16:36;;;;;;;;;;;19.80;37.50;;;;;;5063324;28;19923;-91
2022/03/15 14:19:04;;;;;;;;;;;19.80;37.70;;;;;;5064056;28;20262;-92
2022/03/15 14:21:32;;;;;;;;;;;19.80;37.90;;;;;;5082445;28;19947;-91
2022/03/15 14:23:58;;;;;;;;;;;19.70;37.50;;;;;;5063416;28;19931;-93